createdAt,value
2023-02-28T00:02:09.164Z,100.00
2023-02-28T00:07:11.044Z,100.00
2023-02-28T00:12:13.342Z,100.00
2023-02-28T00:17:15.164Z,100.00
2023-02-28T00:22:19.103Z,100.00
2023-02-28T00:27:21.175Z,100.00
2023-02-28T00:32:23.174Z,100.00
2023-02-28T00:37:25.099Z,100.00
2023-02-28T00:42:27.158Z,100.00
2023-02-28T00:47:28.986Z,100.00
2023-02-28T00:52:31.144Z,100.00
2023-02-28T00:57:32.936Z,100.00
2023-02-28T01:02:34.793Z,100.00
2023-02-28T01:07:36.673Z,100.00
2023-02-28T01:12:38.498Z,100.00
2023-02-28T01:17:40.330Z,100.00
2023-02-28T01:22:42.147Z,100.00
2023-02-28T01:27:43.906Z,100.00
2023-02-28T01:32:45.735Z,100.00
2023-02-28T01:37:47.547Z,100.00
2023-02-28T01:42:49.353Z,100.00
2023-02-28T01:47:53.673Z,100.00
2023-02-28T01:53:00.942Z,100.00
2023-02-28T01:58:07.383Z,100.00
2023-02-28T02:03:17.091Z,100.00
2023-02-28T02:08:25.861Z,100.00
2023-02-28T02:14:06.273Z,100.00
2023-02-28T02:19:26.736Z,100.00
2023-02-28T02:24:50.324Z,100.00
2023-02-28T02:29:58.091Z,100.00
2023-02-28T02:35:15.971Z,100.00
2023-02-28T02:40:22.006Z,100.00
2023-02-28T02:45:37.058Z,100.00
2023-02-28T02:50:49.890Z,100.00
2023-02-28T02:55:55.477Z,100.00
2023-02-28T03:01:03.188Z,100.00
2023-02-28T03:06:07.123Z,100.00
2023-02-28T03:11:15.867Z,100.00
2023-02-28T03:16:58.283Z,100.00
2023-02-28T03:22:20.913Z,100.00
2023-02-28T03:27:30.921Z,100.00
2023-02-28T03:32:55.869Z,100.00
2023-02-28T03:38:15.027Z,100.00
2023-02-28T03:43:24.490Z,100.00
2023-02-28T03:48:52.811Z,100.00
2023-02-28T03:53:59.594Z,100.00
2023-02-28T03:59:39.302Z,100.00
2023-02-28T04:04:46.141Z,100.00
2023-02-28T04:09:48.128Z,100.00
2023-02-28T04:14:50.626Z,100.00
2023-02-28T04:19:52.457Z,100.00
2023-02-28T04:24:57.450Z,100.00
2023-02-28T04:29:59.252Z,100.00
2023-02-28T04:35:01.067Z,100.00
2023-02-28T04:40:03.869Z,100.00
2023-02-28T04:45:06.432Z,100.00
2023-02-28T04:50:08.987Z,100.00
2023-02-28T04:55:11.432Z,100.00
2023-02-28T05:00:16.322Z,100.00
2023-02-28T05:05:19.528Z,100.00
2023-02-28T05:10:21.338Z,100.00
2023-02-28T05:15:23.224Z,100.00
2023-02-28T05:20:25.019Z,100.00
2023-02-28T05:25:26.856Z,100.00
2023-02-28T05:30:28.661Z,100.00
2023-02-28T05:35:30.473Z,100.00
2023-02-28T05:40:32.334Z,100.00
2023-02-28T05:45:34.195Z,100.00
2023-02-28T05:50:36.161Z,100.00
2023-02-28T05:55:38.605Z,100.00
2023-02-28T06:00:42.360Z,100.00
2023-02-28T06:05:44.348Z,100.00
2023-02-28T06:10:46.295Z,100.00
2023-02-28T06:15:48.118Z,100.00
2023-02-28T06:20:56.505Z,100.00
2023-02-28T06:25:59.425Z,100.00
2023-02-28T06:31:06.309Z,100.00
2023-02-28T06:36:09.279Z,100.00
2023-02-28T06:41:11.824Z,100.00
2023-02-28T06:46:15.220Z,100.00
2023-02-28T06:51:23.395Z,100.00
2023-02-28T06:56:25.437Z,100.00
2023-02-28T07:01:29.279Z,100.00
2023-02-28T07:06:31.651Z,100.00
2023-02-28T07:11:33.479Z,100.00
2023-02-28T07:16:36.330Z,100.00
2023-02-28T07:21:38.244Z,100.00
2023-02-28T07:26:40.057Z,100.00
2023-02-28T07:31:41.885Z,100.00
2023-02-28T07:36:43.712Z,100.00
2023-02-28T07:41:45.597Z,100.00
2023-02-28T07:46:47.417Z,100.00
2023-02-28T07:51:50.788Z,100.00
2023-02-28T07:56:52.637Z,100.00
2023-02-28T08:01:54.543Z,100.00
2023-02-28T08:06:57.422Z,100.00
2023-02-28T08:11:59.390Z,100.00
2023-02-28T08:17:01.404Z,100.00
2023-02-28T08:22:03.380Z,100.00
2023-02-28T08:27:05.209Z,100.00
2023-02-28T08:32:17.483Z,100.00
2023-02-28T08:37:25.876Z,100.00
2023-02-28T08:42:27.737Z,100.00
2023-02-28T08:47:29.549Z,100.00
2023-02-28T08:52:31.417Z,100.00
2023-02-28T08:57:33.914Z,100.00
2023-02-28T09:02:35.762Z,100.00
2023-02-28T09:07:37.763Z,100.00
2023-02-28T09:12:39.612Z,100.00
2023-02-28T09:17:41.723Z,100.00
2023-02-28T09:22:43.968Z,100.00
2023-02-28T09:27:46.602Z,100.00
2023-02-28T09:32:53.085Z,100.00
2023-02-28T09:37:55.082Z,100.00
2023-02-28T09:43:00.725Z,100.00
2023-02-28T09:48:18.988Z,100.00
2023-02-28T09:53:35.012Z,100.00
2023-02-28T09:59:02.283Z,100.00
2023-02-28T10:04:38.317Z,100.00
2023-02-28T10:09:40.222Z,100.00
2023-02-28T10:14:46.834Z,100.00
2023-02-28T10:20:01.599Z,100.00
2023-02-28T10:25:27.372Z,100.00
2023-02-28T10:30:29.501Z,100.00
2023-02-28T10:35:31.377Z,100.00
2023-02-28T10:40:36.874Z,100.00
2023-02-28T10:45:39.301Z,100.00
2023-02-28T10:50:45.970Z,100.00
2023-02-28T10:56:17.652Z,100.00
2023-02-28T11:01:39.916Z,100.00
2023-02-28T11:06:41.761Z,100.00
2023-02-28T11:11:46.608Z,100.00
2023-02-28T11:16:52.149Z,100.00
2023-02-28T11:21:58.510Z,100.00
2023-02-28T11:27:01.058Z,100.00
2023-02-28T11:32:03.152Z,100.00
2023-02-28T11:37:10.457Z,100.00
2023-02-28T11:42:33.033Z,100.00
2023-02-28T11:47:37.943Z,100.00
2023-02-28T11:52:56.573Z,100.00
2023-02-28T11:58:15.713Z,100.00
2023-02-28T12:03:34.815Z,100.00
2023-02-28T12:09:00.931Z,100.00
2023-02-28T12:14:27.535Z,100.00
2023-02-28T12:19:50.885Z,100.00
2023-02-28T12:25:07.756Z,100.00
2023-02-28T12:30:33.182Z,100.00
2023-02-28T12:35:39.793Z,100.00
2023-02-28T12:40:44.900Z,100.00
2023-02-28T12:45:56.946Z,100.00
2023-02-28T12:51:01.708Z,100.00
2023-02-28T12:56:23.675Z,100.00
2023-02-28T13:02:04.354Z,100.00
2023-02-28T13:07:24.734Z,100.00
2023-02-28T13:12:27.858Z,90.26
2023-02-28T13:17:29.998Z,98.44
2023-02-28T13:22:40.768Z,80.38
2023-02-28T13:27:42.918Z,78.12
2023-02-28T13:32:44.595Z,75.25
2023-02-28T13:37:50.827Z,93.70
2023-02-28T13:42:53.457Z,95.99
2023-02-28T13:48:06.283Z,87.54
2023-02-28T13:53:14.126Z,88.71
2023-02-28T13:58:30.039Z,100.00
2023-02-28T14:04:08.686Z,95.86
2023-02-28T14:09:27.032Z,100.00
2023-02-28T14:14:37.775Z,100.00
2023-02-28T14:19:40.047Z,100.00
2023-02-28T14:25:12.616Z,100.00
2023-02-28T14:30:26.471Z,100.00
2023-02-28T14:35:49.941Z,100.00
2023-02-28T14:40:54.224Z,100.00
2023-02-28T14:46:04.113Z,100.00
2023-02-28T14:51:05.970Z,100.00
2023-02-28T14:56:19.162Z,100.00
2023-02-28T15:01:23.348Z,100.00
2023-02-28T15:06:26.777Z,100.00
2023-02-28T15:11:30.745Z,100.00
2023-02-28T15:16:40.511Z,100.00
2023-02-28T15:21:48.659Z,100.00
2023-02-28T15:26:56.151Z,100.00
2023-02-28T15:32:02.215Z,100.00
2023-02-28T15:37:26.194Z,100.00
2023-02-28T15:42:32.403Z,100.00
2023-02-28T15:47:34.383Z,100.00
2023-02-28T15:52:42.420Z,100.00
2023-02-28T15:57:46.989Z,100.00
2023-02-28T16:02:48.850Z,100.00
2023-02-28T16:07:50.505Z,100.00
2023-02-28T16:12:54.870Z,100.00
2023-02-28T16:17:57.713Z,100.00
2023-02-28T16:23:02.581Z,100.00
2023-02-28T16:28:09.466Z,100.00
2023-02-28T16:33:11.252Z,100.00
2023-02-28T16:38:12.923Z,100.00
2023-02-28T16:43:20.237Z,100.00
2023-02-28T16:48:21.870Z,100.00
2023-02-28T16:53:23.470Z,100.00
2023-02-28T16:58:26.751Z,100.00
2023-02-28T17:03:33.984Z,100.00
2023-02-28T17:08:35.915Z,100.00
2023-02-28T17:13:37.541Z,100.00
2023-02-28T17:18:39.977Z,100.00
2023-02-28T17:23:41.693Z,100.00
2023-02-28T17:28:43.360Z,100.00
2023-02-28T17:33:45.171Z,100.00
2023-02-28T17:38:46.850Z,100.00
2023-02-28T17:43:48.623Z,100.00
2023-02-28T17:48:54.261Z,100.00
2023-02-28T17:53:55.936Z,100.00
2023-02-28T17:58:58.019Z,100.00
2023-02-28T18:03:59.839Z,100.00
2023-02-28T18:09:01.825Z,100.00
2023-02-28T18:14:03.709Z,100.00
2023-02-28T18:19:07.003Z,100.00
2023-02-28T18:24:09.285Z,100.00
2023-02-28T18:29:25.881Z,100.00
2023-02-28T18:34:28.365Z,100.00
2023-02-28T18:39:31.398Z,100.00
2023-02-28T18:44:33.263Z,100.00
2023-02-28T18:49:35.774Z,100.00
2023-02-28T18:54:37.657Z,100.00
2023-02-28T18:59:39.437Z,100.00
2023-02-28T19:04:41.860Z,100.00
2023-02-28T19:09:43.742Z,100.00
2023-02-28T19:14:46.850Z,100.00
2023-02-28T19:19:48.695Z,100.00
2023-02-28T19:24:51.428Z,100.00
2023-02-28T19:29:53.365Z,100.00
2023-02-28T19:34:55.212Z,100.00
2023-02-28T19:39:57.052Z,100.00
2023-02-28T19:44:59.849Z,100.00
2023-02-28T19:50:01.712Z,100.00
2023-02-28T19:55:03.803Z,100.00
2023-02-28T20:00:06.268Z,100.00
2023-02-28T20:05:14.201Z,100.00
2023-02-28T20:10:16.339Z,100.00
2023-02-28T20:15:18.217Z,100.00
2023-02-28T20:20:20.059Z,100.00
2023-02-28T20:25:21.896Z,100.00
2023-02-28T20:30:24.212Z,100.00
2023-02-28T20:35:26.165Z,100.00
2023-02-28T20:40:28.152Z,100.00
2023-02-28T20:45:30.396Z,100.00
2023-02-28T20:50:32.230Z,100.00
2023-02-28T20:55:34.086Z,100.00
2023-02-28T21:00:37.849Z,100.00
2023-02-28T21:05:39.699Z,100.00
2023-02-28T21:10:41.510Z,100.00
2023-02-28T21:15:43.364Z,100.00
2023-02-28T21:20:45.378Z,100.00
2023-02-28T21:25:47.205Z,100.00
2023-02-28T21:30:49.069Z,100.00
2023-02-28T21:35:52.309Z,100.00
2023-02-28T21:40:54.179Z,100.00
2023-02-28T21:45:56.003Z,100.00
2023-02-28T21:51:02.905Z,100.00
2023-02-28T21:56:07.186Z,100.00
2023-02-28T22:01:15.621Z,100.00
2023-02-28T22:06:20.202Z,100.00
2023-02-28T22:11:23.174Z,100.00
2023-02-28T22:16:29.506Z,100.00
2023-02-28T22:21:34.268Z,100.00
2023-02-28T22:26:37.351Z,100.00
2023-02-28T22:31:39.318Z,100.00
2023-02-28T22:36:43.060Z,100.00
2023-02-28T22:41:44.877Z,100.00
2023-02-28T22:46:46.787Z,100.00
2023-02-28T22:51:48.623Z,100.00
2023-02-28T22:56:50.472Z,100.00
2023-02-28T23:01:52.309Z,100.00
2023-02-28T23:06:54.101Z,100.00
2023-02-28T23:11:55.945Z,100.00
2023-02-28T23:16:57.803Z,100.00
2023-02-28T23:22:00.975Z,100.00
2023-02-28T23:27:05.021Z,100.00
2023-02-28T23:32:07.112Z,100.00
2023-02-28T23:37:09.686Z,100.00
2023-02-28T23:42:11.563Z,100.00
2023-02-28T23:47:14.416Z,100.00
2023-02-28T23:52:16.515Z,100.00
2023-02-28T23:57:18.332Z,100.00
